createdAt,value
2023-01-19T00:00:39.535Z,5.78
2023-01-19T00:03:06.521Z,5.07
2023-01-19T00:05:33.846Z,6.20
2023-01-19T00:08:14.633Z,5.93
2023-01-19T00:10:53.428Z,4.75
2023-01-19T00:13:20.324Z,5.57
2023-01-19T00:15:47.314Z,6.55
2023-01-19T00:18:14.328Z,6.38
2023-01-19T00:20:41.418Z,6.28
2023-01-19T00:23:08.849Z,6.35
2023-01-19T00:25:42.356Z,5.90
2023-01-19T00:28:16.441Z,6.95
2023-01-19T00:30:44.633Z,6.20
2023-01-19T00:33:15.556Z,6.05
2023-01-19T00:35:43.190Z,6.50
2023-01-19T00:38:12.076Z,5.20
2023-01-19T00:40:39.230Z,6.07
2023-01-19T00:43:06.226Z,6.20
2023-01-19T00:45:33.942Z,5.50
2023-01-19T00:48:01.093Z,6.22
2023-01-19T00:50:31.084Z,5.57
2023-01-19T00:53:02.726Z,5.78
2023-01-19T00:55:33.283Z,5.43
2023-01-19T00:58:00.198Z,5.72
2023-01-19T01:00:27.118Z,5.35
2023-01-19T01:02:54.503Z,4.80
2023-01-19T01:05:22.266Z,5.32
2023-01-19T01:07:50.589Z,5.30
2023-01-19T01:10:22.143Z,5.32
2023-01-19T01:12:54.899Z,5.57
2023-01-19T01:15:27.073Z,5.63
2023-01-19T01:17:55.071Z,6.00
2023-01-19T01:20:28.020Z,5.35
2023-01-19T01:22:55.976Z,6.97
2023-01-19T01:25:25.184Z,5.80
2023-01-19T01:27:53.257Z,6.75
2023-01-19T01:30:21.331Z,5.47
2023-01-19T01:32:48.221Z,6.45
2023-01-19T01:35:16.091Z,6.57
2023-01-19T01:37:43.402Z,4.88
2023-01-19T01:40:16.908Z,5.47
2023-01-19T01:42:45.489Z,6.53
2023-01-19T01:45:38.331Z,6.82
2023-01-19T01:48:19.418Z,5.35
2023-01-19T01:51:21.021Z,5.97
2023-01-19T01:54:14.849Z,5.40
2023-01-19T01:56:50.276Z,6.13
2023-01-19T01:59:27.108Z,6.18
2023-01-19T02:02:17.963Z,5.60
2023-01-19T02:04:55.099Z,5.53
2023-01-19T02:07:56.472Z,6.07
2023-01-19T02:10:42.512Z,4.82
2023-01-19T02:13:21.582Z,5.28
2023-01-19T02:15:52.644Z,5.55
2023-01-19T02:18:26.695Z,5.25
2023-01-19T02:21:42.997Z,5.18
2023-01-19T02:24:10.911Z,5.35
2023-01-19T02:26:45.518Z,5.50
2023-01-19T02:29:16.400Z,5.60
2023-01-19T02:31:45.314Z,5.25
2023-01-19T02:34:16.988Z,5.43
2023-01-19T02:37:22.920Z,5.38
2023-01-19T02:39:54.492Z,5.63
2023-01-19T02:43:06.496Z,4.72
2023-01-19T02:45:33.762Z,4.60
2023-01-19T02:48:00.604Z,5.63
2023-01-19T02:50:38.318Z,4.75
2023-01-19T02:53:49.932Z,4.82
2023-01-19T02:56:37.313Z,4.32
2023-01-19T02:59:27.915Z,4.20
2023-01-19T03:02:30.049Z,3.70
2023-01-19T03:05:29.315Z,3.72
2023-01-19T03:07:59.908Z,2.63
2023-01-19T03:11:02.079Z,2.88
2023-01-19T03:13:48.904Z,2.60
2023-01-19T03:16:29.239Z,2.92
2023-01-19T03:19:08.794Z,3.08
2023-01-19T03:21:39.136Z,3.05
2023-01-19T03:24:09.767Z,3.08
2023-01-19T03:26:45.906Z,2.42
2023-01-19T03:29:15.747Z,3.40
2023-01-19T03:31:47.269Z,2.93
2023-01-19T03:34:17.429Z,2.85
2023-01-19T03:36:51.515Z,2.80
2023-01-19T03:39:24.096Z,3.15
2023-01-19T03:41:58.557Z,2.88
2023-01-19T03:44:29.123Z,3.05
2023-01-19T03:46:59.142Z,3.55
2023-01-19T03:49:27.089Z,4.35
2023-01-19T03:51:58.813Z,3.45
2023-01-19T03:54:26.863Z,3.63
2023-01-19T03:56:54.069Z,3.53
2023-01-19T03:59:21.885Z,4.35
2023-01-19T04:01:49.498Z,4.20
2023-01-19T04:04:16.666Z,3.83
2023-01-19T04:06:44.216Z,4.38
2023-01-19T04:09:11.187Z,4.97
2023-01-19T04:11:38.118Z,5.13
2023-01-19T04:14:05.033Z,4.95
2023-01-19T04:16:31.973Z,4.70
2023-01-19T04:18:58.832Z,4.97
2023-01-19T04:21:25.805Z,5.38
2023-01-19T04:23:53.200Z,5.00
2023-01-19T04:26:20.738Z,5.35
2023-01-19T04:28:47.574Z,4.95
2023-01-19T04:31:14.703Z,5.68
2023-01-19T04:33:41.600Z,5.57
2023-01-19T04:36:08.806Z,5.13
2023-01-19T04:38:36.188Z,5.35
2023-01-19T04:41:03.172Z,5.05
2023-01-19T04:43:30.015Z,5.55
2023-01-19T04:45:56.911Z,6.30
2023-01-19T04:48:23.920Z,6.20
2023-01-19T04:50:52.570Z,5.95
2023-01-19T04:53:19.890Z,5.78
2023-01-19T04:55:46.916Z,5.68
2023-01-19T04:58:14.029Z,7.00
2023-01-19T05:00:40.899Z,6.07
2023-01-19T05:03:07.867Z,6.78
2023-01-19T05:05:34.837Z,6.78
2023-01-19T05:08:01.704Z,6.43
2023-01-19T05:10:28.849Z,7.22
2023-01-19T05:12:55.856Z,6.57
2023-01-19T05:15:22.872Z,7.32
2023-01-19T05:17:49.840Z,6.28
2023-01-19T05:20:17.541Z,6.10
2023-01-19T05:22:50.789Z,7.60
2023-01-19T05:25:18.726Z,6.47
2023-01-19T05:27:46.042Z,6.32
2023-01-19T05:30:13.832Z,7.00
2023-01-19T05:32:40.810Z,6.45
2023-01-19T05:35:08.581Z,5.95
2023-01-19T05:37:35.426Z,6.70
2023-01-19T05:40:02.303Z,6.53
2023-01-19T05:42:30.368Z,6.30
2023-01-19T05:44:59.546Z,6.72
2023-01-19T05:47:26.420Z,7.35
2023-01-19T05:49:53.304Z,7.00
2023-01-19T05:52:20.251Z,7.03
2023-01-19T05:54:51.585Z,6.55
2023-01-19T05:57:18.603Z,6.53
2023-01-19T05:59:45.414Z,7.13
2023-01-19T06:02:12.298Z,6.88
2023-01-19T06:04:39.306Z,7.10
2023-01-19T06:07:07.029Z,6.88
2023-01-19T06:09:34.057Z,6.82
2023-01-19T06:12:01.028Z,6.85
2023-01-19T06:14:27.853Z,7.60
2023-01-19T06:16:54.722Z,5.97
2023-01-19T06:19:21.639Z,6.53
2023-01-19T06:21:52.108Z,7.07
2023-01-19T06:24:19.480Z,6.35
2023-01-19T06:26:46.469Z,6.55
2023-01-19T06:29:14.430Z,7.40
2023-01-19T06:31:41.958Z,7.50
2023-01-19T06:34:09.663Z,7.88
2023-01-19T06:36:36.886Z,7.13
2023-01-19T06:39:05.923Z,7.13
2023-01-19T06:41:33.797Z,7.05
2023-01-19T06:44:00.977Z,7.50
2023-01-19T06:46:27.873Z,8.15
2023-01-19T06:48:55.139Z,7.78
2023-01-19T06:51:23.338Z,7.20
2023-01-19T06:53:50.603Z,7.18
2023-01-19T06:56:17.473Z,8.10
2023-01-19T06:58:47.614Z,7.53
2023-01-19T07:01:14.872Z,7.90
2023-01-19T07:03:41.870Z,7.80
2023-01-19T07:06:08.853Z,7.63
2023-01-19T07:08:37.278Z,8.10
2023-01-19T07:11:25.050Z,8.10
2023-01-19T07:13:58.134Z,7.82
2023-01-19T07:16:25.337Z,8.20
2023-01-19T07:18:52.437Z,7.35
2023-01-19T07:21:19.418Z,7.45
2023-01-19T07:23:50.071Z,7.88
2023-01-19T07:26:21.043Z,7.85
2023-01-19T07:28:48.963Z,7.53
2023-01-19T07:31:16.479Z,8.45
2023-01-19T07:33:43.614Z,7.90
2023-01-19T07:36:11.169Z,7.78
2023-01-19T07:38:38.082Z,8.18
2023-01-19T07:41:09.219Z,8.20
2023-01-19T07:43:36.185Z,7.65
2023-01-19T07:46:06.216Z,8.52
2023-01-19T07:48:33.065Z,8.32
2023-01-19T07:51:05.785Z,7.85
2023-01-19T07:53:32.927Z,7.20
2023-01-19T07:56:00.162Z,8.00
2023-01-19T07:58:27.652Z,7.85
2023-01-19T08:00:54.716Z,8.25
2023-01-19T08:03:21.893Z,7.43
2023-01-19T08:05:53.076Z,7.60
2023-01-19T08:08:20.556Z,8.05
2023-01-19T08:10:51.258Z,7.47
2023-01-19T08:15:48.765Z,6.07
2023-01-19T08:18:15.702Z,7.53
2023-01-19T08:20:42.730Z,7.55
2023-01-19T08:23:09.867Z,7.47
2023-01-19T08:25:44.463Z,7.25
2023-01-19T08:28:15.947Z,6.68
2023-01-19T08:30:44.903Z,7.38
2023-01-19T08:33:13.086Z,6.65
2023-01-19T08:35:43.258Z,7.30
2023-01-19T08:38:10.761Z,7.13
2023-01-19T08:40:40.193Z,7.47
2023-01-19T08:43:16.440Z,6.15
2023-01-19T08:45:50.504Z,6.38
2023-01-19T08:48:22.358Z,6.57
2023-01-19T08:50:50.974Z,6.32
2023-01-19T08:53:19.191Z,6.20
2023-01-19T08:55:45.996Z,6.35
2023-01-19T08:58:12.882Z,7.35
2023-01-19T09:00:40.252Z,6.18
2023-01-19T09:03:11.407Z,7.70
2023-01-19T09:05:39.591Z,16.42
2023-01-19T09:08:13.781Z,10.23
2023-01-19T09:10:50.146Z,7.63
2023-01-19T09:13:18.816Z,7.53
2023-01-19T09:15:45.765Z,6.47
2023-01-19T09:18:17.024Z,6.60
2023-01-19T09:20:46.669Z,6.80
2023-01-19T09:23:19.085Z,7.35
2023-01-19T09:25:47.183Z,6.97
2023-01-19T09:28:17.643Z,6.72
2023-01-19T09:30:45.346Z,7.05
2023-01-19T09:33:17.723Z,6.55
2023-01-19T09:35:48.265Z,6.60
2023-01-19T09:38:16.825Z,6.47
2023-01-19T09:40:53.212Z,7.03
2023-01-19T09:43:45.420Z,5.57
2023-01-19T09:46:39.039Z,6.78
2023-01-19T09:49:18.607Z,6.60
2023-01-19T09:51:50.519Z,6.35
2023-01-19T09:54:57.496Z,5.70
2023-01-19T09:57:27.175Z,6.63
2023-01-19T09:59:59.508Z,5.70
2023-01-19T10:02:49.069Z,5.43
2023-01-19T10:05:50.565Z,5.57
2023-01-19T10:08:34.044Z,5.38
2023-01-19T10:11:01.857Z,5.68
2023-01-19T10:13:28.880Z,5.15
2023-01-19T10:16:04.781Z,5.22
2023-01-19T10:18:47.927Z,5.15
2023-01-19T10:21:41.024Z,5.95
2023-01-19T10:24:54.409Z,5.38
2023-01-19T10:27:28.687Z,5.00
2023-01-19T10:29:57.262Z,5.22
2023-01-19T10:32:30.310Z,6.18
2023-01-19T10:34:59.821Z,5.22
2023-01-19T10:37:39.354Z,5.20
2023-01-19T10:40:09.230Z,5.82
2023-01-19T10:42:39.057Z,5.90
2023-01-19T10:45:25.714Z,4.43
2023-01-19T10:47:57.728Z,4.75
2023-01-19T10:50:32.380Z,5.13
2023-01-19T10:53:04.019Z,5.53
2023-01-19T10:55:39.962Z,6.20
2023-01-19T10:58:27.728Z,7.07
2023-01-19T11:00:54.833Z,5.38
2023-01-19T11:03:30.625Z,4.60
2023-01-19T11:06:15.608Z,4.45
2023-01-19T11:08:45.879Z,3.92
2023-01-19T11:11:13.325Z,3.78
2023-01-19T11:13:42.101Z,4.05
2023-01-19T11:16:40.039Z,3.95
2023-01-19T11:19:35.430Z,3.50
2023-01-19T11:22:32.416Z,4.00
2023-01-19T11:25:02.523Z,3.67
2023-01-19T11:27:33.539Z,3.60
2023-01-19T11:30:08.018Z,2.97
2023-01-19T11:32:37.031Z,3.00
2023-01-19T11:35:41.859Z,3.72
2023-01-19T11:38:27.155Z,3.35
2023-01-19T11:40:57.660Z,3.15
2023-01-19T11:43:43.365Z,3.40
2023-01-19T11:46:16.789Z,3.17
2023-01-19T11:48:58.005Z,3.22
2023-01-19T11:51:34.953Z,3.35
2023-01-19T11:54:16.980Z,2.33
2023-01-19T11:56:43.985Z,2.83
2023-01-19T11:59:13.249Z,3.22
2023-01-19T12:01:50.250Z,6.07
2023-01-19T12:04:36.428Z,4.50
2023-01-19T12:07:12.236Z,3.38
2023-01-19T12:09:54.053Z,2.55
2023-01-19T12:12:33.815Z,2.20
2023-01-19T12:15:24.756Z,3.08
2023-01-19T12:20:38.880Z,2.20
2023-01-19T12:23:12.092Z,3.17
2023-01-19T12:25:53.905Z,4.85
2023-01-19T12:28:29.978Z,3.30
2023-01-19T12:31:00.191Z,3.20
2023-01-19T12:33:40.597Z,3.38
2023-01-19T12:36:33.248Z,3.08
2023-01-19T12:39:20.119Z,1.73
2023-01-19T12:41:48.780Z,2.13
2023-01-19T12:44:24.168Z,1.88
2023-01-19T12:47:04.144Z,2.20
2023-01-19T12:49:51.219Z,2.53
2023-01-19T12:52:30.609Z,2.45
2023-01-19T12:55:00.533Z,1.95
2023-01-19T12:57:35.677Z,1.83
2023-01-19T13:00:25.191Z,2.20
2023-01-19T13:02:55.556Z,2.50
2023-01-19T13:05:32.855Z,1.92
2023-01-19T13:08:03.064Z,1.70
2023-01-19T13:11:19.809Z,2.55
2023-01-19T13:13:49.395Z,2.00
2023-01-19T13:16:19.547Z,1.98
2023-01-19T13:18:52.059Z,2.55
2023-01-19T13:21:44.665Z,2.53
2023-01-19T13:24:17.775Z,2.60
2023-01-19T13:26:50.560Z,2.83
2023-01-19T13:29:34.685Z,2.30
2023-01-19T13:32:18.793Z,2.30
2023-01-19T13:34:57.527Z,2.55
2023-01-19T13:37:42.986Z,2.00
2023-01-19T13:40:25.535Z,1.90
2023-01-19T13:42:54.116Z,1.77
2023-01-19T13:45:38.111Z,2.38
2023-01-19T13:48:12.021Z,2.22
2023-01-19T13:50:39.500Z,1.83
2023-01-19T13:53:21.171Z,2.05
2023-01-19T13:55:48.312Z,2.03
2023-01-19T13:58:23.971Z,2.67
2023-01-19T14:00:51.157Z,3.05
2023-01-19T14:03:23.584Z,2.90
2023-01-19T14:05:55.114Z,2.33
2023-01-19T14:08:23.606Z,2.60
2023-01-19T14:11:02.436Z,2.92
2023-01-19T14:13:33.642Z,2.97
2023-01-19T14:16:07.768Z,2.90
2023-01-19T14:18:36.552Z,2.88
2023-01-19T14:21:11.921Z,2.80
2023-01-19T14:24:17.900Z,2.58
2023-01-19T14:26:51.433Z,3.28
2023-01-19T14:29:33.152Z,2.58
2023-01-19T14:32:24.358Z,2.90
2023-01-19T14:35:04.173Z,2.75
2023-01-19T14:37:35.694Z,2.83
2023-01-19T14:40:18.454Z,2.45
2023-01-19T14:43:06.600Z,2.22
2023-01-19T14:45:47.657Z,2.42
2023-01-19T14:48:22.239Z,2.55
2023-01-19T14:51:03.285Z,2.88
2023-01-19T14:53:38.899Z,2.83
2023-01-19T14:56:07.274Z,1.80
2023-01-19T14:58:35.854Z,2.00
2023-01-19T15:01:03.586Z,3.03
2023-01-19T15:03:43.588Z,2.70
2023-01-19T15:06:18.732Z,3.15
2023-01-19T15:08:48.824Z,2.88
2023-01-19T15:11:31.007Z,2.08
2023-01-19T15:13:59.142Z,1.88
2023-01-19T15:16:28.922Z,2.58
2023-01-19T15:18:56.155Z,2.10
2023-01-19T15:21:26.764Z,2.20
2023-01-19T15:26:24.401Z,2.25
2023-01-19T15:28:52.558Z,2.05
2023-01-19T15:31:23.680Z,2.15
2023-01-19T15:33:50.649Z,2.05
2023-01-19T15:36:22.432Z,1.88
2023-01-19T15:38:52.215Z,2.17
2023-01-19T15:41:29.745Z,2.00
2023-01-19T15:43:57.581Z,1.95
2023-01-19T15:46:26.186Z,1.73
2023-01-19T15:48:53.995Z,1.90
2023-01-19T15:51:25.450Z,1.10
2023-01-19T15:53:53.413Z,1.50
2023-01-19T15:56:23.498Z,1.73
2023-01-19T15:58:52.039Z,1.65
2023-01-19T16:01:31.210Z,2.08
2023-01-19T16:04:01.162Z,2.40
2023-01-19T16:06:29.347Z,2.38
2023-01-19T16:08:59.783Z,2.78
2023-01-19T16:11:37.766Z,2.92
2023-01-19T16:14:04.739Z,2.85
2023-01-19T16:16:31.676Z,3.40
2023-01-19T16:18:58.676Z,3.80
2023-01-19T16:21:25.948Z,3.85
2023-01-19T16:23:52.968Z,5.78
2023-01-19T16:26:25.593Z,5.85
2023-01-19T16:28:52.698Z,5.90
2023-01-19T16:31:19.598Z,5.47
2023-01-19T16:33:46.492Z,4.80
2023-01-19T16:36:22.128Z,4.68
2023-01-19T16:38:49.103Z,4.95
2023-01-19T16:41:17.062Z,4.57
2023-01-19T16:43:43.976Z,5.05
2023-01-19T16:46:22.048Z,4.40
2023-01-19T16:48:49.977Z,4.70
2023-01-19T16:51:17.496Z,4.53
2023-01-19T16:53:44.947Z,4.78
2023-01-19T16:56:14.603Z,6.13
2023-01-19T16:58:42.827Z,5.00
2023-01-19T17:01:20.070Z,3.92
2023-01-19T17:03:47.989Z,3.60
2023-01-19T17:06:22.696Z,4.00
2023-01-19T17:08:51.032Z,3.72
2023-01-19T17:11:23.142Z,4.30
2023-01-19T17:14:03.657Z,4.30
2023-01-19T17:16:33.718Z,3.97
2023-01-19T17:19:03.514Z,3.33
2023-01-19T17:21:30.706Z,3.30
2023-01-19T17:23:59.157Z,3.63
2023-01-19T17:26:31.302Z,3.75
2023-01-19T17:29:08.399Z,2.70
2023-01-19T17:31:36.280Z,2.92
2023-01-19T17:34:04.031Z,3.58
2023-01-19T17:36:32.777Z,3.30
2023-01-19T17:39:05.200Z,3.53
2023-01-19T17:41:35.024Z,3.95
2023-01-19T17:44:04.539Z,4.63
2023-01-19T17:46:34.644Z,4.50
2023-01-19T17:49:03.837Z,3.70
2023-01-19T17:51:31.773Z,4.05
2023-01-19T17:53:59.651Z,3.60
2023-01-19T17:56:30.272Z,3.50
2023-01-19T18:01:29.292Z,3.20
2023-01-19T18:03:57.427Z,4.18
2023-01-19T18:06:24.862Z,4.93
2023-01-19T18:08:52.473Z,4.63
2023-01-19T18:11:21.257Z,3.65
2023-01-19T18:13:50.668Z,3.10
2023-01-19T18:16:24.558Z,4.10
2023-01-19T18:18:53.928Z,4.18
2023-01-19T18:21:22.310Z,3.42
2023-01-19T18:23:51.070Z,3.25
2023-01-19T18:26:22.979Z,3.08
2023-01-19T18:28:49.952Z,4.10
2023-01-19T18:31:19.315Z,3.28
2023-01-19T18:33:48.590Z,4.38
2023-01-19T18:36:17.321Z,5.25
2023-01-19T18:38:45.400Z,4.60
2023-01-19T18:41:19.512Z,4.00
2023-01-19T18:43:46.996Z,3.05
2023-01-19T18:46:14.956Z,4.00
2023-01-19T18:48:42.048Z,3.08
2023-01-19T18:51:13.246Z,3.35
2023-01-19T18:53:41.567Z,4.10
2023-01-19T18:56:13.596Z,3.20
2023-01-19T18:58:40.928Z,3.50
2023-01-19T19:01:23.040Z,3.17
2023-01-19T19:03:50.745Z,3.25
2023-01-19T19:06:20.644Z,3.88
2023-01-19T19:08:52.292Z,3.33
2023-01-19T19:11:21.940Z,3.70
2023-01-19T19:13:54.753Z,3.60
2023-01-19T19:16:21.770Z,3.38
2023-01-19T19:18:52.105Z,3.08
2023-01-19T19:21:23.923Z,3.72
2023-01-19T19:23:56.553Z,2.83
2023-01-19T19:26:25.910Z,3.42
2023-01-19T19:28:52.928Z,3.50
2023-01-19T19:31:22.766Z,3.25
2023-01-19T19:33:51.368Z,4.10
2023-01-19T19:36:19.871Z,3.70
2023-01-19T19:38:47.834Z,3.88
2023-01-19T19:41:24.831Z,3.67
2023-01-19T19:43:52.115Z,3.60
2023-01-19T19:46:21.629Z,3.30
2023-01-19T19:48:49.289Z,3.75
2023-01-19T19:51:26.933Z,3.40
2023-01-19T19:53:59.880Z,3.67
2023-01-19T19:56:30.781Z,3.63
2023-01-19T19:58:59.757Z,3.47
2023-01-19T20:01:33.543Z,3.45
2023-01-19T20:04:07.653Z,3.42
2023-01-19T20:06:39.940Z,3.42
2023-01-19T20:09:09.154Z,3.30
2023-01-19T20:11:37.737Z,3.03
2023-01-19T20:14:06.250Z,3.42
2023-01-19T20:16:33.437Z,3.72
2023-01-19T20:19:00.679Z,3.15
2023-01-19T20:21:36.819Z,3.08
2023-01-19T20:24:12.593Z,4.10
2023-01-19T20:26:43.987Z,3.58
2023-01-19T20:29:11.856Z,3.97
2023-01-19T20:31:55.562Z,4.03
2023-01-19T20:34:28.197Z,4.03
2023-01-19T20:36:55.678Z,6.57
2023-01-19T20:39:24.473Z,6.18
2023-01-19T20:41:52.553Z,8.55
2023-01-19T20:44:23.475Z,7.80
2023-01-19T20:46:51.460Z,8.43
2023-01-19T20:49:18.576Z,7.05
2023-01-19T20:51:46.907Z,6.25
2023-01-19T20:54:16.819Z,5.78
2023-01-19T20:56:43.824Z,3.53
2023-01-19T20:59:12.452Z,5.32
2023-01-19T21:01:41.090Z,5.18
2023-01-19T21:04:08.682Z,5.88
2023-01-19T21:06:36.047Z,5.38
2023-01-19T21:09:04.077Z,5.57
2023-01-19T21:11:31.371Z,6.22
2023-01-19T21:13:58.432Z,4.93
2023-01-19T21:16:30.211Z,5.15
2023-01-19T21:18:57.132Z,5.90
2023-01-19T21:21:30.782Z,6.82
2023-01-19T21:24:00.947Z,6.07
2023-01-19T21:26:31.510Z,7.88
2023-01-19T21:29:00.199Z,7.05
2023-01-19T21:31:28.354Z,7.38
2023-01-19T21:33:57.611Z,6.80
2023-01-19T21:36:25.431Z,8.07
2023-01-19T21:38:52.786Z,8.32
2023-01-19T21:41:20.112Z,7.15
2023-01-19T21:43:48.124Z,8.27
2023-01-19T21:46:22.461Z,6.68
2023-01-19T21:48:49.314Z,7.20
2023-01-19T21:51:16.545Z,7.57
2023-01-19T21:53:43.792Z,7.60
2023-01-19T21:56:11.512Z,7.60
2023-01-19T21:58:38.606Z,7.82
2023-01-19T22:01:12.616Z,8.70
2023-01-19T22:03:40.909Z,9.35
2023-01-19T22:06:12.885Z,7.90
2023-01-19T22:08:40.935Z,8.20
2023-01-19T22:11:11.508Z,7.95
2023-01-19T22:13:39.086Z,7.38
2023-01-19T22:16:14.446Z,7.45
2023-01-19T22:18:45.795Z,6.85
2023-01-19T22:21:15.537Z,8.38
2023-01-19T22:23:43.292Z,6.65
2023-01-19T22:26:11.978Z,7.18
2023-01-19T22:28:38.951Z,7.22
2023-01-19T22:31:18.482Z,7.40
2023-01-19T22:33:45.991Z,7.63
2023-01-19T22:36:21.630Z,6.68
2023-01-19T22:39:01.462Z,6.90
2023-01-19T22:41:40.940Z,6.80
2023-01-19T22:44:13.749Z,6.55
2023-01-19T22:46:40.877Z,7.07
2023-01-19T22:49:12.219Z,6.90
2023-01-19T22:51:39.226Z,6.68
2023-01-19T22:54:09.717Z,6.90
2023-01-19T22:56:39.361Z,5.20
2023-01-19T22:59:07.109Z,5.25
2023-01-19T23:01:42.925Z,5.45
2023-01-19T23:04:15.730Z,5.18
2023-01-19T23:06:42.856Z,5.10
2023-01-19T23:09:14.800Z,4.90
2023-01-19T23:11:48.528Z,5.35
2023-01-19T23:14:19.984Z,5.05
2023-01-19T23:16:47.218Z,6.65
2023-01-19T23:19:17.008Z,6.47
2023-01-19T23:21:44.605Z,6.47
2023-01-19T23:24:12.225Z,5.47
2023-01-19T23:26:39.347Z,5.35
2023-01-19T23:29:12.359Z,5.90
2023-01-19T23:31:44.445Z,5.28
2023-01-19T23:34:13.403Z,5.57
2023-01-19T23:36:42.633Z,5.00
2023-01-19T23:39:18.243Z,4.97
2023-01-19T23:41:45.444Z,5.00
2023-01-19T23:44:12.952Z,5.57
2023-01-19T23:46:40.007Z,5.22
2023-01-19T23:49:06.902Z,4.85
2023-01-19T23:51:34.088Z,4.80
2023-01-19T23:54:01.526Z,4.55
2023-01-19T23:56:35.540Z,5.32
2023-01-19T23:59:12.270Z,4.93
